createdAt,value
2022-11-18T00:02:14.099Z,10.30
2022-11-18T00:05:38.948Z,10.30
2022-11-18T00:09:01.285Z,10.30
2022-11-18T00:12:42.015Z,10.30
2022-11-18T00:16:07.071Z,10.30
2022-11-18T00:19:32.062Z,10.30
2022-11-18T00:22:54.014Z,10.30
2022-11-18T00:26:16.040Z,10.40
2022-11-18T00:29:38.089Z,10.40
2022-11-18T00:33:00.021Z,10.40
2022-11-18T00:36:22.021Z,10.40
2022-11-18T00:39:43.980Z,10.40
2022-11-18T00:43:05.938Z,10.40
2022-11-18T00:46:27.921Z,10.30
2022-11-18T00:49:49.907Z,10.30
2022-11-18T00:53:12.884Z,10.30
2022-11-18T00:56:34.912Z,10.30
2022-11-18T00:59:56.970Z,10.30
2022-11-18T01:03:20.539Z,10.20
2022-11-18T01:06:42.613Z,10.30
2022-11-18T01:10:05.040Z,10.20
2022-11-18T01:13:31.233Z,10.20
2022-11-18T01:16:57.349Z,10.20
2022-11-18T01:20:19.375Z,10.20
2022-11-18T01:23:41.636Z,10.20
2022-11-18T01:27:04.044Z,10.20
2022-11-18T01:30:26.060Z,10.20
2022-11-18T01:33:47.985Z,10.20
2022-11-18T01:37:12.174Z,10.20
2022-11-18T01:40:35.110Z,10.20
2022-11-18T01:44:00.514Z,10.20
2022-11-18T01:47:23.824Z,10.10
2022-11-18T01:50:52.193Z,10.20
2022-11-18T01:54:20.344Z,10.20
2022-11-18T01:57:44.133Z,10.10
2022-11-18T02:01:07.854Z,10.20
2022-11-18T02:04:29.955Z,10.20
2022-11-18T02:07:52.033Z,10.10
2022-11-18T02:11:34.551Z,10.10
2022-11-18T02:14:56.935Z,10.10
2022-11-18T02:18:39.192Z,10.10
2022-11-18T02:22:44.600Z,10.10
2022-11-18T02:26:47.549Z,10.10
2022-11-18T02:30:13.416Z,10.00
2022-11-18T02:34:01.516Z,10.00
2022-11-18T02:37:36.450Z,9.90
2022-11-18T02:41:23.195Z,10.00
2022-11-18T02:44:50.000Z,10.00
2022-11-18T02:48:13.290Z,10.00
2022-11-18T02:51:36.846Z,10.10
2022-11-18T02:55:00.481Z,10.10
2022-11-18T02:58:23.643Z,10.10
2022-11-18T03:01:45.825Z,10.10
2022-11-18T03:05:18.430Z,10.10
2022-11-18T03:08:50.523Z,10.20
2022-11-18T03:12:31.452Z,10.20
2022-11-18T03:16:06.145Z,10.30
2022-11-18T03:19:44.457Z,10.30
2022-11-18T03:23:15.874Z,10.30
2022-11-18T03:26:41.176Z,10.30
2022-11-18T03:30:08.433Z,10.30
2022-11-18T03:33:38.301Z,10.30
2022-11-18T03:37:09.043Z,10.40
2022-11-18T03:40:35.111Z,10.40
2022-11-18T03:44:11.655Z,10.40
2022-11-18T03:47:41.635Z,10.30
2022-11-18T03:51:13.878Z,10.20
2022-11-18T03:54:38.224Z,10.10
2022-11-18T03:58:24.232Z,10.10
2022-11-18T04:01:57.070Z,10.10
2022-11-18T04:05:20.120Z,10.10
2022-11-18T04:08:45.083Z,10.10
2022-11-18T04:12:13.063Z,10.20
2022-11-18T04:15:39.189Z,10.30
2022-11-18T04:19:06.045Z,10.30
2022-11-18T04:22:28.499Z,10.30
2022-11-18T04:25:50.676Z,10.40
2022-11-18T04:29:12.603Z,10.40
2022-11-18T04:32:35.155Z,10.40
2022-11-18T04:35:59.460Z,10.40
2022-11-18T04:39:21.385Z,10.50
2022-11-18T04:42:43.583Z,10.50
2022-11-18T04:46:05.656Z,10.50
2022-11-18T04:49:28.433Z,10.50
2022-11-18T04:52:50.417Z,10.50
2022-11-18T04:56:12.388Z,10.50
2022-11-18T04:59:34.435Z,10.50
2022-11-18T05:02:56.424Z,10.50
2022-11-18T05:06:21.612Z,10.50
2022-11-18T05:09:43.643Z,10.50
2022-11-18T05:13:05.632Z,10.60
2022-11-18T05:16:27.676Z,10.60
2022-11-18T05:19:49.689Z,10.60
2022-11-18T05:23:11.713Z,10.60
2022-11-18T05:26:33.832Z,10.60
2022-11-18T05:29:55.831Z,10.60
2022-11-18T05:33:17.808Z,10.60
2022-11-18T05:36:40.077Z,10.60
2022-11-18T05:40:02.059Z,10.60
2022-11-18T05:43:25.498Z,10.60
2022-11-18T05:46:47.581Z,10.60
2022-11-18T05:50:09.736Z,10.60
2022-11-18T05:53:31.671Z,10.60
2022-11-18T05:56:53.759Z,10.60
2022-11-18T06:00:16.372Z,10.60
2022-11-18T06:03:40.607Z,10.60
2022-11-18T06:07:14.567Z,10.60
2022-11-18T06:10:40.314Z,10.60
2022-11-18T06:14:08.683Z,10.60
2022-11-18T06:17:36.280Z,10.60
2022-11-18T06:21:04.357Z,10.60
2022-11-18T06:24:26.809Z,10.60
2022-11-18T06:27:50.341Z,10.60
2022-11-18T06:31:12.301Z,10.50
2022-11-18T06:34:39.790Z,10.30
2022-11-18T06:38:03.471Z,10.30
2022-11-18T06:41:25.430Z,10.40
2022-11-18T06:44:47.604Z,10.50
2022-11-18T06:48:09.689Z,10.50
2022-11-18T06:51:31.734Z,10.50
2022-11-18T06:54:53.710Z,10.50
2022-11-18T06:58:15.744Z,10.60
2022-11-18T07:01:40.229Z,10.50
2022-11-18T07:05:02.533Z,10.50
2022-11-18T07:08:24.488Z,10.60
2022-11-18T07:11:46.478Z,10.70
2022-11-18T07:15:09.014Z,10.80
2022-11-18T07:18:33.197Z,10.90
2022-11-18T07:21:55.189Z,10.80
2022-11-18T07:25:17.416Z,10.70
2022-11-18T07:28:39.982Z,10.70
2022-11-18T07:32:01.940Z,10.90
2022-11-18T07:35:23.920Z,11.10
2022-11-18T07:38:47.077Z,11.10
2022-11-18T07:42:10.058Z,11.10
2022-11-18T07:45:32.089Z,11.20
2022-11-18T07:48:56.567Z,11.30
2022-11-18T07:52:18.585Z,11.30
2022-11-18T07:55:40.605Z,11.20
2022-11-18T07:59:02.675Z,11.20
2022-11-18T08:02:24.647Z,11.20
2022-11-18T08:05:46.656Z,11.30
2022-11-18T08:09:09.874Z,11.30
2022-11-18T08:12:31.864Z,11.40
2022-11-18T08:15:55.178Z,11.50
2022-11-18T08:19:17.544Z,11.60
2022-11-18T08:22:42.890Z,11.70
2022-11-18T08:26:05.957Z,11.90
2022-11-18T08:29:28.477Z,12.10
2022-11-18T08:32:50.642Z,12.20
2022-11-18T08:36:18.361Z,12.30
2022-11-18T08:39:40.525Z,12.30
2022-11-18T08:43:02.477Z,12.30
2022-11-18T08:46:24.427Z,12.40
2022-11-18T08:49:48.891Z,12.60
2022-11-18T08:53:10.833Z,13.30
2022-11-18T08:56:32.868Z,13.60
2022-11-18T08:59:54.929Z,13.80
2022-11-18T09:03:16.989Z,14.80
2022-11-18T09:06:40.276Z,15.90
2022-11-18T09:10:02.308Z,16.80
2022-11-18T09:13:49.867Z,17.40
2022-11-18T09:17:06.760Z,17.70
2022-11-18T09:20:28.720Z,18.00
2022-11-18T09:23:50.988Z,18.00
2022-11-18T09:27:17.025Z,18.20
2022-11-18T09:30:39.581Z,18.20
2022-11-18T09:34:01.757Z,18.00
2022-11-18T09:37:23.790Z,17.80
2022-11-18T09:41:03.691Z,17.40
2022-11-18T09:44:41.674Z,17.00
2022-11-18T09:48:17.088Z,16.50
2022-11-18T09:51:45.113Z,15.90
2022-11-18T09:55:18.881Z,15.60
2022-11-18T09:58:45.220Z,15.40
2022-11-18T10:02:34.945Z,15.10
2022-11-18T10:06:16.914Z,14.90
2022-11-18T10:09:41.791Z,14.80
2022-11-18T10:13:20.868Z,14.80
2022-11-18T10:17:01.393Z,15.00
2022-11-18T10:20:32.230Z,15.30
2022-11-18T10:24:01.628Z,15.80
2022-11-18T10:27:39.212Z,16.30
2022-11-18T10:31:11.128Z,16.60
2022-11-18T10:34:36.814Z,16.70
2022-11-18T10:38:13.839Z,16.70
2022-11-18T10:41:51.677Z,16.70
2022-11-18T10:45:24.998Z,16.50
2022-11-18T10:48:47.365Z,16.40
2022-11-18T10:52:14.338Z,16.30
2022-11-18T10:55:36.418Z,16.00
2022-11-18T10:58:58.545Z,15.80
2022-11-18T11:02:35.379Z,16.00
2022-11-18T11:06:21.796Z,16.30
2022-11-18T11:09:43.855Z,16.50
2022-11-18T11:13:15.673Z,16.40
2022-11-18T11:16:47.155Z,16.50
2022-11-18T11:20:22.886Z,16.40
2022-11-18T11:23:46.447Z,16.40
2022-11-18T11:31:17.875Z,16.40
2022-11-18T11:35:02.751Z,16.50
2022-11-18T11:38:49.162Z,16.30
2022-11-18T11:42:13.681Z,16.10
2022-11-18T11:45:52.373Z,15.90
2022-11-18T11:49:18.921Z,15.60
2022-11-18T11:53:26.194Z,15.50
2022-11-18T11:56:56.159Z,15.50
2022-11-18T12:00:20.474Z,15.50
2022-11-18T12:03:46.078Z,15.50
2022-11-18T12:07:43.704Z,15.40
2022-11-18T12:11:24.707Z,15.30
2022-11-18T12:14:53.195Z,15.30
2022-11-18T12:18:34.118Z,15.40
2022-11-18T12:21:58.340Z,15.40
2022-11-18T12:25:47.991Z,15.40
2022-11-18T12:29:19.293Z,15.40
2022-11-18T12:32:46.861Z,15.40
2022-11-18T12:36:09.491Z,15.30
2022-11-18T12:39:31.903Z,15.30
2022-11-18T12:43:12.575Z,15.30
2022-11-18T12:46:45.562Z,15.30
2022-11-18T12:50:15.923Z,15.20
2022-11-18T12:53:43.604Z,15.10
2022-11-18T12:57:28.830Z,15.20
2022-11-18T13:00:53.844Z,15.10
2022-11-18T13:04:22.510Z,15.10
2022-11-18T13:08:11.900Z,15.00
2022-11-18T13:12:03.065Z,15.00
2022-11-18T13:15:43.842Z,15.00
2022-11-18T13:19:09.181Z,14.90
2022-11-18T13:22:49.622Z,14.90
2022-11-18T13:26:20.366Z,14.90
2022-11-18T13:29:56.250Z,14.90
2022-11-18T13:33:18.312Z,14.80
2022-11-18T13:36:44.870Z,14.80
2022-11-18T13:40:19.099Z,14.80
2022-11-18T13:43:41.159Z,14.80
2022-11-18T13:47:25.915Z,14.80
2022-11-18T13:50:54.028Z,14.80
2022-11-18T13:54:24.281Z,14.80
2022-11-18T13:57:50.129Z,14.80
2022-11-18T14:01:25.266Z,14.70
2022-11-18T14:04:54.719Z,14.70
2022-11-18T14:08:37.704Z,14.60
2022-11-18T14:12:07.558Z,14.40
2022-11-18T14:15:32.481Z,14.30
2022-11-18T14:18:54.625Z,14.20
2022-11-18T14:22:25.369Z,14.10
2022-11-18T14:25:47.357Z,14.00
2022-11-18T14:29:23.798Z,13.90
2022-11-18T14:33:13.254Z,13.70
2022-11-18T14:36:35.318Z,13.50
2022-11-18T14:39:58.465Z,13.40
2022-11-18T14:43:20.391Z,13.30
2022-11-18T14:46:44.718Z,13.30
2022-11-18T14:50:13.449Z,13.20
2022-11-18T14:53:35.386Z,13.00
2022-11-18T14:57:04.919Z,12.90
2022-11-18T15:00:26.975Z,12.80
2022-11-18T15:03:48.910Z,12.70
2022-11-18T15:07:22.786Z,12.60
2022-11-18T15:10:45.473Z,12.60
2022-11-18T15:14:07.502Z,12.50
2022-11-18T15:17:29.821Z,12.40
2022-11-18T15:20:52.238Z,12.30
2022-11-18T15:24:14.288Z,12.20
2022-11-18T15:27:36.692Z,12.10
2022-11-18T15:30:58.635Z,11.90
2022-11-18T15:34:21.575Z,11.80
2022-11-18T15:37:44.150Z,11.60
2022-11-18T15:41:06.651Z,11.50
2022-11-18T15:44:28.649Z,11.30
2022-11-18T15:47:54.332Z,11.20
2022-11-18T15:51:16.317Z,11.00
2022-11-18T15:54:38.842Z,10.80
2022-11-18T15:58:00.767Z,10.60
2022-11-18T16:01:23.911Z,10.40
2022-11-18T16:04:46.003Z,10.20
2022-11-18T16:08:07.947Z,10.10
2022-11-18T16:11:48.778Z,10.00
2022-11-18T16:15:29.362Z,9.90
2022-11-18T16:18:58.644Z,9.80
2022-11-18T16:22:20.628Z,9.80
2022-11-18T16:25:46.364Z,9.70
2022-11-18T16:29:10.324Z,9.50
2022-11-18T16:32:32.482Z,9.50
2022-11-18T16:35:54.519Z,9.50
2022-11-18T16:39:27.948Z,9.40
2022-11-18T16:42:51.236Z,9.40
2022-11-18T16:46:13.839Z,9.30
2022-11-18T16:49:35.828Z,9.20
2022-11-18T16:52:58.328Z,9.20
2022-11-18T16:56:28.523Z,9.20
2022-11-18T16:59:50.356Z,9.10
2022-11-18T17:03:12.308Z,9.10
2022-11-18T17:06:34.683Z,9.10
2022-11-18T17:09:56.600Z,9.30
2022-11-18T17:13:18.548Z,9.20
2022-11-18T17:16:40.866Z,9.00
2022-11-18T17:20:03.378Z,9.00
2022-11-18T17:23:28.506Z,8.90
2022-11-18T17:26:52.208Z,8.90
2022-11-18T17:30:14.687Z,8.80
2022-11-18T17:33:37.287Z,8.70
2022-11-18T17:37:04.904Z,8.70
2022-11-18T17:40:28.978Z,8.70
2022-11-18T17:43:57.094Z,8.60
2022-11-18T17:47:19.074Z,8.60
2022-11-18T17:50:41.008Z,8.40
2022-11-18T17:54:05.424Z,8.30
2022-11-18T17:57:27.483Z,8.30
2022-11-18T18:00:49.456Z,8.20
2022-11-18T18:04:11.946Z,8.20
2022-11-18T18:07:34.206Z,8.30
2022-11-18T18:11:02.010Z,8.20
2022-11-18T18:14:23.957Z,8.20
2022-11-18T18:17:48.343Z,8.10
2022-11-18T18:21:13.024Z,8.10
2022-11-18T18:24:35.338Z,8.10
2022-11-18T18:27:57.328Z,8.00
2022-11-18T18:31:19.313Z,8.00
2022-11-18T18:34:41.259Z,7.90
2022-11-18T18:38:03.281Z,7.90
2022-11-18T18:41:25.293Z,7.80
2022-11-18T18:45:05.995Z,7.90
2022-11-18T18:48:27.832Z,8.00
2022-11-18T18:51:50.278Z,7.90
2022-11-18T18:55:12.263Z,7.90
2022-11-18T18:58:34.710Z,7.80
2022-11-18T19:01:56.717Z,7.80
2022-11-18T19:05:18.803Z,7.80
2022-11-18T19:08:40.875Z,7.70
2022-11-18T19:12:21.502Z,7.80
2022-11-18T19:15:43.506Z,7.80
2022-11-18T19:19:06.539Z,7.70
2022-11-18T19:22:33.019Z,7.80
2022-11-18T19:26:01.587Z,7.80
2022-11-18T19:29:25.754Z,7.80
2022-11-18T19:32:47.804Z,7.80
2022-11-18T19:36:10.512Z,7.80
2022-11-18T19:39:32.530Z,7.80
2022-11-18T19:42:54.488Z,7.80
2022-11-18T19:46:16.437Z,7.80
2022-11-18T19:49:38.478Z,7.80
2022-11-18T19:53:20.365Z,7.80
2022-11-18T19:56:42.544Z,7.80
2022-11-18T20:00:04.937Z,7.80
2022-11-18T20:03:31.145Z,7.70
2022-11-18T20:06:53.416Z,7.70
2022-11-18T20:10:15.679Z,7.60
2022-11-18T20:13:39.492Z,7.60
2022-11-18T20:17:01.454Z,7.60
2022-11-18T20:20:23.453Z,7.60
2022-11-18T20:23:46.880Z,7.50
2022-11-18T20:27:08.926Z,7.50
2022-11-18T20:30:32.913Z,7.40
2022-11-18T20:33:56.475Z,7.40
2022-11-18T20:37:18.948Z,7.40
2022-11-18T20:40:40.975Z,7.30
2022-11-18T20:44:06.197Z,7.30
2022-11-18T20:47:28.123Z,7.40
2022-11-18T20:50:50.074Z,7.40
2022-11-18T20:54:12.251Z,7.50
2022-11-18T20:57:34.276Z,7.40
2022-11-18T21:01:01.486Z,7.50
2022-11-18T21:04:23.925Z,7.60
2022-11-18T21:07:46.101Z,7.60
2022-11-18T21:11:10.898Z,7.70
2022-11-18T21:14:32.943Z,7.70
2022-11-18T21:17:54.912Z,7.70
2022-11-18T21:21:35.958Z,7.60
2022-11-18T21:24:57.902Z,7.50
2022-11-18T21:28:19.828Z,7.50
2022-11-18T21:31:42.385Z,7.40
2022-11-18T21:35:04.669Z,7.30
2022-11-18T21:38:26.711Z,7.20
2022-11-18T21:41:54.814Z,7.20
2022-11-18T21:45:18.287Z,7.20
2022-11-18T21:48:40.953Z,7.10
2022-11-18T21:52:02.966Z,7.00
2022-11-18T21:55:24.888Z,7.00
2022-11-18T21:58:48.495Z,7.10
2022-11-18T22:02:14.315Z,7.00
2022-11-18T22:05:36.392Z,6.90
2022-11-18T22:08:58.896Z,6.80
2022-11-18T22:12:20.842Z,6.70
2022-11-18T22:15:42.861Z,6.60
2022-11-18T22:19:08.152Z,6.50
2022-11-18T22:22:30.515Z,6.40
2022-11-18T22:26:19.638Z,6.40
2022-11-18T22:29:41.714Z,6.30
2022-11-18T22:33:03.715Z,6.30
2022-11-18T22:36:27.060Z,6.30
2022-11-18T22:39:49.039Z,6.30
2022-11-18T22:43:11.102Z,6.30
2022-11-18T22:46:33.239Z,6.20
2022-11-18T22:49:56.647Z,6.30
2022-11-18T22:53:18.712Z,6.30
2022-11-18T22:56:40.723Z,6.30
2022-11-18T23:00:03.918Z,6.30
2022-11-18T23:03:25.893Z,6.30
2022-11-18T23:06:49.596Z,6.30
2022-11-18T23:10:11.782Z,6.20
2022-11-18T23:13:53.975Z,6.20
2022-11-18T23:17:16.112Z,6.30
2022-11-18T23:20:38.127Z,6.30
2022-11-18T23:24:00.080Z,6.30
2022-11-18T23:27:22.042Z,6.30
2022-11-18T23:30:44.131Z,6.30
2022-11-18T23:34:06.143Z,6.30
2022-11-18T23:37:28.171Z,6.20
2022-11-18T23:41:01.803Z,6.20
2022-11-18T23:44:43.704Z,6.20
2022-11-18T23:48:05.826Z,6.10
2022-11-18T23:51:30.579Z,6.10
2022-11-18T23:54:54.491Z,6.10
2022-11-18T23:58:17.300Z,6.10
